Prathersville, Missouri
Current Conditions -  °F | °C
As of 8:54 AM on Sunday 21 Dec 2014 (Local Time) from KCOU Reporting Station
Overcast Overcast  
Wind Chill:   Ceiling: 2900
Heat Index:   Visibility: 10mi
Dew Point:   Wind: 10mph
Humidity: 82%   Direction: 150°SSE
Pressure: 30.11"   Gusts: NA
Location:  39.0235°N, 92.2896°W
Report Text: KCOU 211454Z 15009KT 10SM OVC029 05/02 A3011 RMK AO2 SLP200 T00500022 58009
Loading
Personal Weather Stations






























Interactive Weather Map New forecast layout! Learn more

10-Day Weather Forecast

Advertisements
Track Severe Weather on mobile